sensor_id;sensor_type;location;lat;lon;timestamp;pressure;altitude;pressure_sealevel;temperature;humidity
63916;BME280;50094;51.356;-0.196;2023-01-30T00:02:23;101395.99;;;31.84;33.12
63916;BME280;50094;51.356;-0.196;2023-01-30T00:04:50;101389.35;;;31.88;33.04
63916;BME280;50094;51.356;-0.196;2023-01-30T00:07:18;101393.84;;;31.88;32.83
63916;BME280;50094;51.356;-0.196;2023-01-30T00:09:45;101394.87;;;31.92;32.58
63916;BME280;50094;51.356;-0.196;2023-01-30T00:12:13;101383.25;;;31.93;32.30
63916;BME280;50094;51.356;-0.196;2023-01-30T00:14:40;101381.60;;;31.96;32.30
63916;BME280;50094;51.356;-0.196;2023-01-30T00:17:08;101388.60;;;31.99;31.95
63916;BME280;50094;51.356;-0.196;2023-01-30T00:19:35;101383.81;;;32.00;32.04
63916;BME280;50094;51.356;-0.196;2023-01-30T00:22:03;101388.66;;;32.08;31.67
63916;BME280;50094;51.356;-0.196;2023-01-30T00:24:30;101389.38;;;32.10;31.40
63916;BME280;50094;51.356;-0.196;2023-01-30T00:26:58;101383.91;;;32.14;31.37
63916;BME280;50094;51.356;-0.196;2023-01-30T00:29:25;101380.35;;;32.17;31.16
63916;BME280;50094;51.356;-0.196;2023-01-30T00:31:53;101380.85;;;31.96;31.01
63916;BME280;50094;51.356;-0.196;2023-01-30T00:34:21;101381.48;;;31.99;30.82
63916;BME280;50094;51.356;-0.196;2023-01-30T00:36:48;101389.02;;;32.07;30.65
63916;BME280;50094;51.356;-0.196;2023-01-30T00:39:16;101383.92;;;32.06;30.50
63916;BME280;50094;51.356;-0.196;2023-01-30T00:41:43;101383.48;;;32.09;30.20
63916;BME280;50094;51.356;-0.196;2023-01-30T00:44:11;101383.68;;;32.34;30.01
63916;BME280;50094;51.356;-0.196;2023-01-30T00:46:43;101378.39;;;32.37;29.92
63916;BME280;50094;51.356;-0.196;2023-01-30T00:49:10;101385.42;;;32.39;29.75
63916;BME280;50094;51.356;-0.196;2023-01-30T00:51:38;101385.95;;;32.42;30.02
63916;BME280;50094;51.356;-0.196;2023-01-30T00:54:05;101383.57;;;31.97;29.66
63916;BME280;50094;51.356;-0.196;2023-01-30T00:56:33;101386.30;;;32.47;29.82
63916;BME280;50094;51.356;-0.196;2023-01-30T00:59:01;101385.22;;;32.29;29.84
63916;BME280;50094;51.356;-0.196;2023-01-30T01:01:28;101392.59;;;32.33;29.78
63916;BME280;50094;51.356;-0.196;2023-01-30T01:03:56;101395.61;;;32.34;29.66
63916;BME280;50094;51.356;-0.196;2023-01-30T01:06:23;101395.35;;;32.34;29.38
63916;BME280;50094;51.356;-0.196;2023-01-30T01:08:51;101392.42;;;32.35;29.31
63916;BME280;50094;51.356;-0.196;2023-01-30T01:11:18;101380.66;;;32.38;29.13
63916;BME280;50094;51.356;-0.196;2023-01-30T01:13:46;101378.63;;;32.39;29.19
63916;BME280;50094;51.356;-0.196;2023-01-30T01:16:13;101374.15;;;32.41;29.22
63916;BME280;50094;51.356;-0.196;2023-01-30T01:18:41;101369.53;;;32.42;29.21
63916;BME280;50094;51.356;-0.196;2023-01-30T01:21:08;101360.54;;;32.43;29.12
63916;BME280;50094;51.356;-0.196;2023-01-30T01:23:36;101356.71;;;32.43;29.22
63916;BME280;50094;51.356;-0.196;2023-01-30T01:26:04;101356.39;;;32.22;28.96
63916;BME280;50094;51.356;-0.196;2023-01-30T01:28:31;101361.15;;;32.74;29.11
63916;BME280;50094;51.356;-0.196;2023-01-30T01:30:59;101366.21;;;32.75;28.82
63916;BME280;50094;51.356;-0.196;2023-01-30T01:33:26;101362.14;;;32.27;28.89
63916;BME280;50094;51.356;-0.196;2023-01-30T01:35:55;101357.15;;;32.86;28.64
63916;BME280;50094;51.356;-0.196;2023-01-30T01:38:22;101349.70;;;32.64;28.83
63916;BME280;50094;51.356;-0.196;2023-01-30T01:40:49;101347.43;;;32.66;29.00
63916;BME280;50094;51.356;-0.196;2023-01-30T01:43:18;101349.20;;;32.98;28.65
63916;BME280;50094;51.356;-0.196;2023-01-30T01:45:48;101348.88;;;32.29;28.60
63916;BME280;50094;51.356;-0.196;2023-01-30T01:48:21;101346.99;;;32.55;28.40
63916;BME280;50094;51.356;-0.196;2023-01-30T01:50:53;101343.93;;;32.61;28.48
63916;BME280;50094;51.356;-0.196;2023-01-30T01:53:26;101338.86;;;32.64;28.32
63916;BME280;50094;51.356;-0.196;2023-01-30T01:55:57;101330.69;;;32.94;28.12
63916;BME280;50094;51.356;-0.196;2023-01-30T01:58:29;101332.79;;;32.94;28.16
63916;BME280;50094;51.356;-0.196;2023-01-30T02:00:59;101322.34;;;32.72;27.95
63916;BME280;50094;51.356;-0.196;2023-01-30T02:03:31;101320.87;;;32.71;27.70
63916;BME280;50094;51.356;-0.196;2023-01-30T02:06:02;101324.18;;;32.95;27.61
63916;BME280;50094;51.356;-0.196;2023-01-30T02:08:32;101321.97;;;32.69;27.47
63916;BME280;50094;51.356;-0.196;2023-01-30T02:11:05;101315.29;;;33.01;27.29
63916;BME280;50094;51.356;-0.196;2023-01-30T02:13:34;101307.06;;;32.76;27.31
63916;BME280;50094;51.356;-0.196;2023-01-30T02:16:05;101302.96;;;32.57;27.14
63916;BME280;50094;51.356;-0.196;2023-01-30T02:18:34;101304.30;;;32.80;27.01
63916;BME280;50094;51.356;-0.196;2023-01-30T02:21:19;101308.11;;;32.84;26.87
63916;BME280;50094;51.356;-0.196;2023-01-30T02:24:23;101299.86;;;32.86;26.76
63916;BME280;50094;51.356;-0.196;2023-01-30T02:27:11;101303.33;;;32.87;26.75
63916;BME280;50094;51.356;-0.196;2023-01-30T02:30:05;101302.27;;;32.90;26.62
63916;BME280;50094;51.356;-0.196;2023-01-30T02:32:40;101310.70;;;32.94;26.48
63916;BME280;50094;51.356;-0.196;2023-01-30T02:35:18;101304.07;;;32.94;26.56
63916;BME280;50094;51.356;-0.196;2023-01-30T02:37:57;101305.92;;;32.96;26.41
63916;BME280;50094;51.356;-0.196;2023-01-30T02:40:39;101303.63;;;32.94;26.27
63916;BME280;50094;51.356;-0.196;2023-01-30T02:43:14;101305.24;;;32.96;26.23
63916;BME280;50094;51.356;-0.196;2023-01-30T02:45:49;101312.22;;;32.96;26.22
63916;BME280;50094;51.356;-0.196;2023-01-30T02:48:22;101319.91;;;32.97;26.20
63916;BME280;50094;51.356;-0.196;2023-01-30T02:50:55;101326.29;;;33.04;26.17
63916;BME280;50094;51.356;-0.196;2023-01-30T02:53:23;101314.54;;;33.33;26.16
63916;BME280;50094;51.356;-0.196;2023-01-30T02:55:51;101319.40;;;33.05;26.14
63916;BME280;50094;51.356;-0.196;2023-01-30T02:58:22;101316.00;;;33.01;26.13
63916;BME280;50094;51.356;-0.196;2023-01-30T03:01:08;101323.91;;;33.05;26.05
63916;BME280;50094;51.356;-0.196;2023-01-30T03:03:46;101336.03;;;33.07;26.00
63916;BME280;50094;51.356;-0.196;2023-01-30T03:06:29;101336.12;;;33.10;25.96
63916;BME280;50094;51.356;-0.196;2023-01-30T03:09:06;101337.06;;;33.17;25.80
63916;BME280;50094;51.356;-0.196;2023-01-30T03:11:43;101335.12;;;33.25;25.62
63916;BME280;50094;51.356;-0.196;2023-01-30T03:14:18;101336.67;;;33.05;25.59
63916;BME280;50094;51.356;-0.196;2023-01-30T03:16:49;101334.75;;;33.28;25.50
63916;BME280;50094;51.356;-0.196;2023-01-30T03:19:18;101330.01;;;33.27;25.50
63916;BME280;50094;51.356;-0.196;2023-01-30T03:21:46;101333.15;;;33.34;25.36
63916;BME280;50094;51.356;-0.196;2023-01-30T03:24:14;101336.87;;;33.16;25.26
63916;BME280;50094;51.356;-0.196;2023-01-30T03:26:45;101340.51;;;33.35;25.40
63916;BME280;50094;51.356;-0.196;2023-01-30T03:29:14;101354.23;;;33.35;25.40
63916;BME280;50094;51.356;-0.196;2023-01-30T03:31:41;101358.34;;;33.15;25.26
63916;BME280;50094;51.356;-0.196;2023-01-30T03:34:09;101365.83;;;33.16;25.30
63916;BME280;50094;51.356;-0.196;2023-01-30T03:36:36;101357.69;;;33.37;25.32
63916;BME280;50094;51.356;-0.196;2023-01-30T03:39:04;101358.11;;;33.38;25.16
63916;BME280;50094;51.356;-0.196;2023-01-30T03:41:31;101355.51;;;33.37;25.11
63916;BME280;50094;51.356;-0.196;2023-01-30T03:43:59;101355.44;;;33.40;25.04
63916;BME280;50094;51.356;-0.196;2023-01-30T03:46:26;101357.95;;;33.39;25.03
63916;BME280;50094;51.356;-0.196;2023-01-30T03:48:53;101361.13;;;33.20;24.99
63916;BME280;50094;51.356;-0.196;2023-01-30T03:51:21;101354.61;;;33.45;24.98
63916;BME280;50094;51.356;-0.196;2023-01-30T03:53:48;101353.38;;;33.46;24.96
63916;BME280;50094;51.356;-0.196;2023-01-30T03:56:16;101355.77;;;33.24;24.90
63916;BME280;50094;51.356;-0.196;2023-01-30T03:58:44;101353.68;;;33.48;24.84
63916;BME280;50094;51.356;-0.196;2023-01-30T04:01:11;101352.28;;;33.26;24.82
63916;BME280;50094;51.356;-0.196;2023-01-30T04:03:38;101351.74;;;33.28;24.73
63916;BME280;50094;51.356;-0.196;2023-01-30T04:06:06;101348.42;;;33.50;24.67
63916;BME280;50094;51.356;-0.196;2023-01-30T04:08:34;101345.87;;;33.26;24.76
63916;BME280;50094;51.356;-0.196;2023-01-30T04:11:01;101350.02;;;33.50;24.76
63916;BME280;50094;51.356;-0.196;2023-01-30T04:13:28;101353.23;;;33.30;24.70
63916;BME280;50094;51.356;-0.196;2023-01-30T04:16:13;101348.88;;;33.50;24.72
63916;BME280;50094;51.356;-0.196;2023-01-30T04:18:41;101356.65;;;33.56;24.61
63916;BME280;50094;51.356;-0.196;2023-01-30T04:21:09;101361.20;;;33.57;24.52
63916;BME280;50094;51.356;-0.196;2023-01-30T04:23:36;101364.19;;;33.12;24.48
63916;BME280;50094;51.356;-0.196;2023-01-30T04:26:04;101362.68;;;33.11;24.46
63916;BME280;50094;51.356;-0.196;2023-01-30T04:28:32;101366.73;;;33.13;24.35
63916;BME280;50094;51.356;-0.196;2023-01-30T04:31:00;101364.10;;;33.57;24.38
63916;BME280;50094;51.356;-0.196;2023-01-30T04:33:27;101367.77;;;33.57;24.44
63916;BME280;50094;51.356;-0.196;2023-01-30T04:35:56;101363.45;;;33.62;24.35
63916;BME280;50094;51.356;-0.196;2023-01-30T04:38:26;101366.80;;;33.61;24.32
63916;BME280;50094;51.356;-0.196;2023-01-30T04:40:55;101370.17;;;33.63;24.26
63916;BME280;50094;51.356;-0.196;2023-01-30T04:43:24;101373.48;;;33.42;24.25
63916;BME280;50094;51.356;-0.196;2023-01-30T04:45:52;101373.77;;;33.44;24.24
63916;BME280;50094;51.356;-0.196;2023-01-30T04:48:20;101372.73;;;33.67;24.18
63916;BME280;50094;51.356;-0.196;2023-01-30T04:50:49;101381.11;;;33.68;24.22
63916;BME280;50094;51.356;-0.196;2023-01-30T04:53:18;101385.08;;;33.49;24.23
63916;BME280;50094;51.356;-0.196;2023-01-30T04:55:45;101393.03;;;33.49;24.12
63916;BME280;50094;51.356;-0.196;2023-01-30T04:58:13;101396.83;;;33.51;24.12
63916;BME280;50094;51.356;-0.196;2023-01-30T05:00:40;101399.25;;;33.51;24.08
63916;BME280;50094;51.356;-0.196;2023-01-30T05:03:08;101402.61;;;33.53;24.06
63916;BME280;50094;51.356;-0.196;2023-01-30T05:05:36;101406.29;;;33.52;24.02
63916;BME280;50094;51.356;-0.196;2023-01-30T05:08:04;101411.85;;;33.75;24.03
63916;BME280;50094;51.356;-0.196;2023-01-30T05:10:31;101413.06;;;33.77;23.98
63916;BME280;50094;51.356;-0.196;2023-01-30T05:13:01;101419.30;;;33.79;23.93
63916;BME280;50094;51.356;-0.196;2023-01-30T05:15:28;101424.88;;;33.36;23.89
63916;BME280;50094;51.356;-0.196;2023-01-30T05:17:56;101427.14;;;33.37;23.84
63916;BME280;50094;51.356;-0.196;2023-01-30T05:20:24;101417.61;;;33.39;23.78
63916;BME280;50094;51.356;-0.196;2023-01-30T05:22:51;101413.83;;;33.62;23.78
63916;BME280;50094;51.356;-0.196;2023-01-30T05:25:18;101420.21;;;33.40;23.77
63916;BME280;50094;51.356;-0.196;2023-01-30T05:27:46;101417.95;;;33.38;23.79
63916;BME280;50094;51.356;-0.196;2023-01-30T05:30:14;101421.49;;;33.85;23.79
63916;BME280;50094;51.356;-0.196;2023-01-30T05:32:41;101422.45;;;33.64;23.82
63916;BME280;50094;51.356;-0.196;2023-01-30T05:35:09;101427.96;;;33.44;23.69
63916;BME280;50094;51.356;-0.196;2023-01-30T05:37:36;101427.85;;;33.63;23.81
63916;BME280;50094;51.356;-0.196;2023-01-30T05:40:05;101431.53;;;33.92;23.68
63916;BME280;50094;51.356;-0.196;2023-01-30T05:42:32;101428.78;;;33.77;23.63
63916;BME280;50094;51.356;-0.196;2023-01-30T05:45:00;101429.38;;;33.56;23.67
63916;BME280;50094;51.356;-0.196;2023-01-30T05:47:27;101425.56;;;33.64;23.58
63916;BME280;50094;51.356;-0.196;2023-01-30T05:49:55;101420.89;;;33.65;23.56
63916;BME280;50094;51.356;-0.196;2023-01-30T05:52:22;101427.74;;;33.86;23.59
63916;BME280;50094;51.356;-0.196;2023-01-30T05:54:50;101430.63;;;33.88;23.57
63916;BME280;50094;51.356;-0.196;2023-01-30T05:57:17;101424.92;;;33.69;23.53
63916;BME280;50094;51.356;-0.196;2023-01-30T05:59:45;101428.58;;;33.73;23.43
63916;BME280;50094;51.356;-0.196;2023-01-30T06:02:12;101423.92;;;33.44;23.56
63916;BME280;50094;51.356;-0.196;2023-01-30T06:04:40;101419.78;;;33.77;23.45
63916;BME280;50094;51.356;-0.196;2023-01-30T06:07:07;101426.99;;;34.02;23.40
63916;BME280;50094;51.356;-0.196;2023-01-30T06:09:35;101426.64;;;34.06;23.33
63916;BME280;50094;51.356;-0.196;2023-01-30T06:12:03;101430.49;;;33.86;23.34
63916;BME280;50094;51.356;-0.196;2023-01-30T06:14:30;101426.07;;;33.89;23.26
63916;BME280;50094;51.356;-0.196;2023-01-30T06:16:58;101437.69;;;33.90;23.27
63916;BME280;50094;51.356;-0.196;2023-01-30T06:19:25;101446.19;;;33.92;23.22
63916;BME280;50094;51.356;-0.196;2023-01-30T06:21:53;101449.36;;;33.92;23.31
63916;BME280;50094;51.356;-0.196;2023-01-30T06:24:20;101449.06;;;33.98;23.30
63916;BME280;50094;51.356;-0.196;2023-01-30T06:26:47;101456.48;;;33.97;22.90
63916;BME280;50094;51.356;-0.196;2023-01-30T06:29:15;101456.22;;;33.74;22.86
63916;BME280;50094;51.356;-0.196;2023-01-30T06:31:42;101459.79;;;33.91;22.75
63916;BME280;50094;51.356;-0.196;2023-01-30T06:34:10;101468.44;;;33.35;22.65
63916;BME280;50094;51.356;-0.196;2023-01-30T06:36:37;101467.55;;;33.24;22.59
63916;BME280;50094;51.356;-0.196;2023-01-30T06:39:05;101472.17;;;32.93;22.50
63916;BME280;50094;51.356;-0.196;2023-01-30T06:41:32;101480.03;;;32.91;22.53
63916;BME280;50094;51.356;-0.196;2023-01-30T06:44:00;101490.18;;;32.61;22.70
63916;BME280;50094;51.356;-0.196;2023-01-30T06:46:27;101501.06;;;32.60;22.62
63916;BME280;50094;51.356;-0.196;2023-01-30T06:48:55;101512.98;;;32.41;22.54
63916;BME280;50094;51.356;-0.196;2023-01-30T06:51:22;101521.03;;;32.19;22.60
63916;BME280;50094;51.356;-0.196;2023-01-30T06:53:49;101523.94;;;31.77;22.74
63916;BME280;50094;51.356;-0.196;2023-01-30T06:56:17;101530.44;;;31.80;22.85
63916;BME280;50094;51.356;-0.196;2023-01-30T06:58:45;101538.12;;;31.61;22.85
63916;BME280;50094;51.356;-0.196;2023-01-30T07:01:12;101539.59;;;31.47;22.87
63916;BME280;50094;51.356;-0.196;2023-01-30T07:03:40;101538.35;;;31.54;22.83
63916;BME280;50094;51.356;-0.196;2023-01-30T07:06:07;101544.12;;;31.14;22.83
63916;BME280;50094;51.356;-0.196;2023-01-30T07:08:35;101543.09;;;31.22;22.96
63916;BME280;50094;51.356;-0.196;2023-01-30T07:11:03;101538.70;;;31.10;22.98
63916;BME280;50094;51.356;-0.196;2023-01-30T07:13:31;101537.09;;;31.23;23.04
63916;BME280;50094;51.356;-0.196;2023-01-30T07:15:59;101548.22;;;30.84;23.05
63916;BME280;50094;51.356;-0.196;2023-01-30T07:18:26;101568.24;;;30.98;23.03
63916;BME280;50094;51.356;-0.196;2023-01-30T07:20:54;101571.53;;;30.86;23.10
63916;BME280;50094;51.356;-0.196;2023-01-30T07:23:21;101579.78;;;30.75;22.98
63916;BME280;50094;51.356;-0.196;2023-01-30T07:25:48;101592.06;;;30.63;23.00
63916;BME280;50094;51.356;-0.196;2023-01-30T07:28:16;101597.51;;;30.75;23.01
63916;BME280;50094;51.356;-0.196;2023-01-30T07:30:43;101607.61;;;30.45;22.99
63916;BME280;50094;51.356;-0.196;2023-01-30T07:33:11;101611.92;;;30.37;22.97
63916;BME280;50094;51.356;-0.196;2023-01-30T07:35:39;101611.84;;;30.52;23.09
63916;BME280;50094;51.356;-0.196;2023-01-30T07:38:06;101626.14;;;30.28;23.14
63916;BME280;50094;51.356;-0.196;2023-01-30T07:40:34;101629.84;;;30.45;23.25
63916;BME280;50094;51.356;-0.196;2023-01-30T07:43:03;101629.27;;;29.93;23.35
63916;BME280;50094;51.356;-0.196;2023-01-30T07:45:37;101633.31;;;30.38;23.40
63916;BME280;50094;51.356;-0.196;2023-01-30T07:48:05;101633.20;;;30.11;23.42
63916;BME280;50094;51.356;-0.196;2023-01-30T07:50:32;101633.76;;;30.55;23.43
63916;BME280;50094;51.356;-0.196;2023-01-30T07:53:02;101629.94;;;30.01;23.44
63916;BME280;50094;51.356;-0.196;2023-01-30T07:55:29;101629.19;;;30.21;23.46
63916;BME280;50094;51.356;-0.196;2023-01-30T07:57:57;101626.89;;;29.96;23.47
63916;BME280;50094;51.356;-0.196;2023-01-30T08:00:25;101635.78;;;30.12;23.48
63916;BME280;50094;51.356;-0.196;2023-01-30T08:02:52;101641.15;;;30.38;23.45
63916;BME280;50094;51.356;-0.196;2023-01-30T08:05:19;101638.97;;;30.04;23.48
63916;BME280;50094;51.356;-0.196;2023-01-30T08:07:47;101644.19;;;29.98;23.49
63916;BME280;50094;51.356;-0.196;2023-01-30T08:10:15;101650.71;;;30.17;23.53
63916;BME280;50094;51.356;-0.196;2023-01-30T08:12:42;101647.06;;;30.13;23.69
63916;BME280;50094;51.356;-0.196;2023-01-30T08:15:10;101647.05;;;30.10;23.67
63916;BME280;50094;51.356;-0.196;2023-01-30T08:17:38;101642.29;;;30.03;23.56
63916;BME280;50094;51.356;-0.196;2023-01-30T08:20:05;101639.05;;;29.92;23.48
63916;BME280;50094;51.356;-0.196;2023-01-30T08:22:33;101636.80;;;29.82;23.43
63916;BME280;50094;51.356;-0.196;2023-01-30T08:25:01;101630.91;;;29.76;23.37
63916;BME280;50094;51.356;-0.196;2023-01-30T08:27:28;101627.93;;;29.66;23.32
63916;BME280;50094;51.356;-0.196;2023-01-30T08:29:56;101635.83;;;29.62;23.28
63916;BME280;50094;51.356;-0.196;2023-01-30T08:32:23;101647.57;;;29.31;23.33
63916;BME280;50094;51.356;-0.196;2023-01-30T08:34:51;101660.63;;;29.55;23.36
63916;BME280;50094;51.356;-0.196;2023-01-30T08:37:17;101675.63;;;29.53;23.45
63916;BME280;50094;51.356;-0.196;2023-01-30T08:39:44;101676.52;;;29.53;23.52
63916;BME280;50094;51.356;-0.196;2023-01-30T08:42:12;101673.11;;;29.51;23.54
63916;BME280;50094;51.356;-0.196;2023-01-30T08:44:40;101674.03;;;29.44;23.57
63916;BME280;50094;51.356;-0.196;2023-01-30T08:47:07;101682.65;;;29.15;23.52
63916;BME280;50094;51.356;-0.196;2023-01-30T08:49:35;101688.12;;;29.37;23.54
63916;BME280;50094;51.356;-0.196;2023-01-30T08:52:03;101689.43;;;29.10;23.52
63916;BME280;50094;51.356;-0.196;2023-01-30T08:54:30;101699.50;;;29.34;23.52
63916;BME280;50094;51.356;-0.196;2023-01-30T08:56:58;101701.57;;;29.32;23.45
63916;BME280;50094;51.356;-0.196;2023-01-30T08:59:25;101701.07;;;29.24;23.48
63916;BME280;50094;51.356;-0.196;2023-01-30T09:01:53;101701.69;;;29.23;23.60
63916;BME280;50094;51.356;-0.196;2023-01-30T09:04:20;101701.92;;;28.94;23.63
63916;BME280;50094;51.356;-0.196;2023-01-30T09:06:46;101702.45;;;29.17;23.49
63916;BME280;50094;51.356;-0.196;2023-01-30T09:09:14;101708.70;;;29.11;23.49
63916;BME280;50094;51.356;-0.196;2023-01-30T09:11:42;101703.52;;;29.08;23.38
63916;BME280;50094;51.356;-0.196;2023-01-30T09:14:08;101698.92;;;29.01;23.40
63916;BME280;50094;51.356;-0.196;2023-01-30T09:16:36;101693.95;;;29.21;23.45
63916;BME280;50094;51.356;-0.196;2023-01-30T09:19:04;101696.73;;;28.95;23.34
63916;BME280;50094;51.356;-0.196;2023-01-30T09:21:31;101708.16;;;28.91;23.35
63916;BME280;50094;51.356;-0.196;2023-01-30T09:23:59;101711.96;;;28.90;23.43
63916;BME280;50094;51.356;-0.196;2023-01-30T09:26:26;101709.62;;;28.87;23.49
63916;BME280;50094;51.356;-0.196;2023-01-30T09:28:52;101710.66;;;28.82;23.45
63916;BME280;50094;51.356;-0.196;2023-01-30T09:31:20;101704.22;;;28.81;23.54
63916;BME280;50094;51.356;-0.196;2023-01-30T09:33:48;101704.76;;;28.78;23.46
63916;BME280;50094;51.356;-0.196;2023-01-30T09:36:15;101706.21;;;28.73;23.46
63916;BME280;50094;51.356;-0.196;2023-01-30T09:38:42;101704.87;;;28.71;23.46
63916;BME280;50094;51.356;-0.196;2023-01-30T09:41:28;101718.84;;;28.70;23.39
63916;BME280;50094;51.356;-0.196;2023-01-30T09:44:12;101724.20;;;28.68;23.49
63916;BME280;50094;51.356;-0.196;2023-01-30T09:46:47;101719.94;;;29.14;23.54
63916;BME280;50094;51.356;-0.196;2023-01-30T09:49:31;101719.71;;;28.66;23.36
63916;BME280;50094;51.356;-0.196;2023-01-30T09:52:10;101719.19;;;28.84;23.32
63916;BME280;50094;51.356;-0.196;2023-01-30T09:54:43;101727.13;;;28.79;23.29
63916;BME280;50094;51.356;-0.196;2023-01-30T09:57:15;101729.08;;;28.95;23.30
63916;BME280;50094;51.356;-0.196;2023-01-30T09:59:52;101727.30;;;28.77;23.24
63916;BME280;50094;51.356;-0.196;2023-01-30T10:02:35;101727.34;;;28.95;23.18
63916;BME280;50094;51.356;-0.196;2023-01-30T10:05:07;101722.79;;;28.67;23.10
63916;BME280;50094;51.356;-0.196;2023-01-30T10:07:45;101735.91;;;28.61;23.12
63916;BME280;50094;51.356;-0.196;2023-01-30T10:10:33;101743.03;;;28.60;23.13
63916;BME280;50094;51.356;-0.196;2023-01-30T10:13:10;101742.46;;;28.59;23.17
63916;BME280;50094;51.356;-0.196;2023-01-30T10:15:49;101744.73;;;29.04;23.32
63916;BME280;50094;51.356;-0.196;2023-01-30T10:18:50;101744.87;;;28.29;23.23
63916;BME280;50094;51.356;-0.196;2023-01-30T10:21:30;101748.82;;;28.72;23.22
63916;BME280;50094;51.356;-0.196;2023-01-30T10:24:13;101751.69;;;28.69;23.18
63916;BME280;50094;51.356;-0.196;2023-01-30T10:26:44;101749.83;;;28.64;23.12
63916;BME280;50094;51.356;-0.196;2023-01-30T10:29:17;101736.77;;;28.37;23.03
63916;BME280;50094;51.356;-0.196;2023-01-30T10:31:47;101736.12;;;28.29;22.91
63916;BME280;50094;51.356;-0.196;2023-01-30T10:34:19;101744.71;;;28.18;22.93
63916;BME280;50094;51.356;-0.196;2023-01-30T10:36:53;101752.53;;;28.37;23.00
63916;BME280;50094;51.356;-0.196;2023-01-30T10:39:27;101753.58;;;28.11;23.02
63916;BME280;50094;51.356;-0.196;2023-01-30T10:42:10;101757.00;;;28.31;23.04
63916;BME280;50094;51.356;-0.196;2023-01-30T10:44:39;101761.09;;;28.31;23.04
63916;BME280;50094;51.356;-0.196;2023-01-30T10:47:21;101758.48;;;28.30;23.11
63916;BME280;50094;51.356;-0.196;2023-01-30T10:49:52;101771.54;;;28.33;23.08
63916;BME280;50094;51.356;-0.196;2023-01-30T10:52:28;101779.29;;;28.06;23.00
63916;BME280;50094;51.356;-0.196;2023-01-30T10:55:04;101782.01;;;28.23;23.13
63916;BME280;50094;51.356;-0.196;2023-01-30T10:57:44;101773.49;;;28.01;23.15
63916;BME280;50094;51.356;-0.196;2023-01-30T11:00:22;101768.80;;;28.25;23.00
63916;BME280;50094;51.356;-0.196;2023-01-30T11:03:02;101763.64;;;28.49;23.07
63916;BME280;50094;51.356;-0.196;2023-01-30T11:05:40;101763.16;;;28.51;23.03
63916;BME280;50094;51.356;-0.196;2023-01-30T11:08:19;101767.72;;;28.24;22.93
63916;BME280;50094;51.356;-0.196;2023-01-30T11:10:47;101775.93;;;28.23;22.78
63916;BME280;50094;51.356;-0.196;2023-01-30T11:13:17;101785.02;;;28.18;22.93
63916;BME280;50094;51.356;-0.196;2023-01-30T11:15:48;101780.54;;;28.15;22.92
63916;BME280;50094;51.356;-0.196;2023-01-30T11:18:18;101775.13;;;28.37;22.91
63916;BME280;50094;51.356;-0.196;2023-01-30T11:20:59;101764.00;;;28.05;22.97
63916;BME280;50094;51.356;-0.196;2023-01-30T11:23:33;101759.33;;;28.02;22.90
63916;BME280;50094;51.356;-0.196;2023-01-30T11:26:02;101763.83;;;28.27;22.74
63916;BME280;50094;51.356;-0.196;2023-01-30T11:28:37;101767.79;;;28.15;22.73
63916;BME280;50094;51.356;-0.196;2023-01-30T11:31:16;101775.99;;;27.83;22.68
63916;BME280;50094;51.356;-0.196;2023-01-30T11:33:44;101774.87;;;27.80;22.77
63916;BME280;50094;51.356;-0.196;2023-01-30T11:36:25;101775.63;;;28.08;22.82
63916;BME280;50094;51.356;-0.196;2023-01-30T11:38:57;101773.82;;;27.81;22.77
63916;BME280;50094;51.356;-0.196;2023-01-30T11:41:24;101774.07;;;28.03;22.79
63916;BME280;50094;51.356;-0.196;2023-01-30T11:43:58;101776.63;;;27.76;22.82
63916;BME280;50094;51.356;-0.196;2023-01-30T11:46:29;101774.49;;;27.76;22.78
63916;BME280;50094;51.356;-0.196;2023-01-30T11:49:00;101773.12;;;27.73;22.74
63916;BME280;50094;51.356;-0.196;2023-01-30T11:51:29;101766.42;;;27.95;22.70
63916;BME280;50094;51.356;-0.196;2023-01-30T11:54:01;101764.19;;;27.67;22.74
63916;BME280;50094;51.356;-0.196;2023-01-30T11:56:33;101768.18;;;28.14;22.79
63916;BME280;50094;51.356;-0.196;2023-01-30T11:59:04;101768.00;;;27.92;22.83
63916;BME280;50094;51.356;-0.196;2023-01-30T12:01:34;101772.07;;;27.68;22.95
63916;BME280;50094;51.356;-0.196;2023-01-30T12:04:05;101775.11;;;27.97;23.00
63916;BME280;50094;51.356;-0.196;2023-01-30T12:06:36;101772.27;;;28.04;23.05
63916;BME280;50094;51.356;-0.196;2023-01-30T12:09:04;101767.68;;;27.80;23.04
63916;BME280;50094;51.356;-0.196;2023-01-30T12:11:41;101773.04;;;28.08;23.03
63916;BME280;50094;51.356;-0.196;2023-01-30T12:14:18;101771.92;;;27.79;23.00
63916;BME280;50094;51.356;-0.196;2023-01-30T12:16:56;101766.13;;;27.74;23.04
63916;BME280;50094;51.356;-0.196;2023-01-30T12:19:34;101767.15;;;28.00;22.93
63916;BME280;50094;51.356;-0.196;2023-01-30T12:22:12;101771.49;;;27.69;22.97
63916;BME280;50094;51.356;-0.196;2023-01-30T12:24:47;101773.80;;;27.70;22.99
63916;BME280;50094;51.356;-0.196;2023-01-30T12:27:21;101777.32;;;27.93;22.97
63916;BME280;50094;51.356;-0.196;2023-01-30T12:29:59;101776.75;;;27.67;23.05
63916;BME280;50094;51.356;-0.196;2023-01-30T12:32:32;101773.86;;;27.68;23.04
63916;BME280;50094;51.356;-0.196;2023-01-30T12:35:01;101771.24;;;27.93;23.05
63916;BME280;50094;51.356;-0.196;2023-01-30T12:37:42;101775.24;;;27.92;23.00
63916;BME280;50094;51.356;-0.196;2023-01-30T12:40:22;101770.09;;;27.63;22.96
63916;BME280;50094;51.356;-0.196;2023-01-30T12:43:06;101775.06;;;27.86;22.93
63916;BME280;50094;51.356;-0.196;2023-01-30T12:45:40;101777.67;;;27.60;22.89
63916;BME280;50094;51.356;-0.196;2023-01-30T12:48:33;101780.39;;;27.57;22.81
63916;BME280;50094;51.356;-0.196;2023-01-30T12:51:19;101770.25;;;27.78;22.85
63916;BME280;50094;51.356;-0.196;2023-01-30T12:53:57;101777.31;;;27.77;23.11
63916;BME280;50094;51.356;-0.196;2023-01-30T12:56:41;101775.13;;;27.81;23.19
63916;BME280;50094;51.356;-0.196;2023-01-30T12:59:17;101787.66;;;27.83;23.25